Huvudsida
METAR-TAF:

METAR-TAF

Flygplatser :

Vojens flygplats

Vojens, Danmark

latitud: 55-14N, longitud: 009-16E, höjd: 43 m

Aktuellt väderrapport

Denna rapport gjordes för 23 minuter sedan, klockan 00:50 UTC
Vind 1 kt från ost
Temperatur 1°C
Fuktighet 75%
Tryck 1029 hPa
Sikt 10 km eller mer
Inga moln under 1 500 m eller inga cumulonimbus

METAR: EKSP 210050Z 09001KT CAVOK 01/M03 Q1029 RMK FEW200

Tid: 03:13 (01:13 UTC)

Väderprognos

Denna rapport gjordes för 2 timmar och 8 minuter sedan, klockan 23:05 UTC
Prognos gäller från 21 kl. 00 UTC till 21 kl. 24 UTC
Vind 5 kt varierande vindriktning
Sikt 10 km eller mer
Få moln på en höjd av 20000 ft

TAF: EKSP 202305Z 2100/2124 VRB05KT 9999 FEW200

Aktuella väderrapporter och prognoser från 4000 flygplatser (METAR- och TAF-rapporter).

De tillgängliga stationerna syns som gula och röda prickar på kartan.

För musen över prickarna för att se namnen på stationerna.

Klicka sedan för att få väderrapporter och prognoser.

För att ändra kartan: Klicka på de gröna knapparna med ett svart kors på för att zooma in; den gröna knappen med ett streck på för att zooma ut; eller på de gröna pilarna för angränsande kartor.


METAR-TAF: